sensor_id;sensor_type;location;lat;lon;timestamp;pressure;altitude;pressure_sealevel;temperature
15575;BMP180;7888;46.748;8.102;2022-11-18T00:02:19;92413.00;;;14.10
15575;BMP180;7888;46.748;8.102;2022-11-18T00:04:45;92410.00;;;14.10
15575;BMP180;7888;46.748;8.102;2022-11-18T00:07:10;92432.00;;;14.10
15575;BMP180;7888;46.748;8.102;2022-11-18T00:09:36;92439.00;;;14.10
15575;BMP180;7888;46.748;8.102;2022-11-18T00:12:03;92442.00;;;14.10
15575;BMP180;7888;46.748;8.102;2022-11-18T00:14:47;92420.00;;;14.10
15575;BMP180;7888;46.748;8.102;2022-11-18T00:17:13;92434.00;;;14.10
15575;BMP180;7888;46.748;8.102;2022-11-18T00:19:39;92433.00;;;14.10
15575;BMP180;7888;46.748;8.102;2022-11-18T00:22:08;92444.00;;;14.20
15575;BMP180;7888;46.748;8.102;2022-11-18T00:24:35;92447.00;;;14.20
15575;BMP180;7888;46.748;8.102;2022-11-18T00:27:01;92433.00;;;14.20
15575;BMP180;7888;46.748;8.102;2022-11-18T00:29:27;92420.00;;;14.20
15575;BMP180;7888;46.748;8.102;2022-11-18T00:31:55;92413.00;;;14.20
15575;BMP180;7888;46.748;8.102;2022-11-18T00:34:21;92419.00;;;14.10
15575;BMP180;7888;46.748;8.102;2022-11-18T00:36:48;92425.00;;;14.20
15575;BMP180;7888;46.748;8.102;2022-11-18T00:39:17;92414.00;;;14.20
15575;BMP180;7888;46.748;8.102;2022-11-18T00:41:44;92427.00;;;14.20
15575;BMP180;7888;46.748;8.102;2022-11-18T00:44:29;92425.00;;;14.20
15575;BMP180;7888;46.748;8.102;2022-11-18T00:46:55;92429.00;;;14.20
15575;BMP180;7888;46.748;8.102;2022-11-18T00:49:21;92439.00;;;14.20
15575;BMP180;7888;46.748;8.102;2022-11-18T00:51:47;92419.00;;;14.20
15575;BMP180;7888;46.748;8.102;2022-11-18T00:54:13;92451.00;;;14.20
15575;BMP180;7888;46.748;8.102;2022-11-18T00:56:39;92458.00;;;14.20
15575;BMP180;7888;46.748;8.102;2022-11-18T00:59:05;92449.00;;;14.20
15575;BMP180;7888;46.748;8.102;2022-11-18T01:01:30;92490.00;;;14.10
15575;BMP180;7888;46.748;8.102;2022-11-18T01:03:56;92505.00;;;14.10
15575;BMP180;7888;46.748;8.102;2022-11-18T01:06:22;92512.00;;;14.10
15575;BMP180;7888;46.748;8.102;2022-11-18T01:08:49;92521.00;;;14.10
15575;BMP180;7888;46.748;8.102;2022-11-18T01:11:15;92526.00;;;14.10
15575;BMP180;7888;46.748;8.102;2022-11-18T01:14:00;92539.00;;;14.00
15575;BMP180;7888;46.748;8.102;2022-11-18T01:16:27;92529.00;;;14.10
15575;BMP180;7888;46.748;8.102;2022-11-18T01:18:54;92548.00;;;14.00
15575;BMP180;7888;46.748;8.102;2022-11-18T01:21:20;92552.00;;;14.00
15575;BMP180;7888;46.748;8.102;2022-11-18T01:23:46;92561.00;;;14.00
15575;BMP180;7888;46.748;8.102;2022-11-18T01:26:15;92574.00;;;14.00
15575;BMP180;7888;46.748;8.102;2022-11-18T01:28:42;92585.00;;;14.00
15575;BMP180;7888;46.748;8.102;2022-11-18T01:31:14;92609.00;;;14.10
15575;BMP180;7888;46.748;8.102;2022-11-18T01:33:41;92626.00;;;14.10
15575;BMP180;7888;46.748;8.102;2022-11-18T01:36:22;92613.00;;;14.00
15575;BMP180;7888;46.748;8.102;2022-11-18T01:38:49;92589.00;;;14.00
15575;BMP180;7888;46.748;8.102;2022-11-18T01:41:18;92595.00;;;14.00
15575;BMP180;7888;46.748;8.102;2022-11-18T01:43:56;92611.00;;;13.90
15575;BMP180;7888;46.748;8.102;2022-11-18T01:46:26;92622.00;;;13.90
15575;BMP180;7888;46.748;8.102;2022-11-18T01:49:05;92620.00;;;13.90
15575;BMP180;7888;46.748;8.102;2022-11-18T01:51:52;92625.00;;;13.80
15575;BMP180;7888;46.748;8.102;2022-11-18T01:54:25;92616.00;;;13.70
15575;BMP180;7888;46.748;8.102;2022-11-18T01:56:57;92612.00;;;13.70
15575;BMP180;7888;46.748;8.102;2022-11-18T01:59:29;92619.00;;;13.60
15575;BMP180;7888;46.748;8.102;2022-11-18T02:01:57;92625.00;;;13.60
15575;BMP180;7888;46.748;8.102;2022-11-18T02:04:25;92628.00;;;13.60
15575;BMP180;7888;46.748;8.102;2022-11-18T02:06:53;92631.00;;;13.60
15575;BMP180;7888;46.748;8.102;2022-11-18T02:09:20;92623.00;;;13.60
15575;BMP180;7888;46.748;8.102;2022-11-18T02:11:47;92618.00;;;13.60
15575;BMP180;7888;46.748;8.102;2022-11-18T02:14:20;92625.00;;;13.60
15575;BMP180;7888;46.748;8.102;2022-11-18T02:31:56;92649.00;;;13.60
15575;BMP180;7888;46.748;8.102;2022-11-18T02:34:49;92643.00;;;13.60
15575;BMP180;7888;46.748;8.102;2022-11-18T02:37:53;92655.00;;;13.60
15575;BMP180;7888;46.748;8.102;2022-11-18T02:40:40;92630.00;;;13.60
15575;BMP180;7888;46.748;8.102;2022-11-18T02:43:30;92644.00;;;13.60
15575;BMP180;7888;46.748;8.102;2022-11-18T02:46:04;92634.00;;;13.60
15575;BMP180;7888;46.748;8.102;2022-11-18T02:48:35;92629.00;;;13.60
15575;BMP180;7888;46.748;8.102;2022-11-18T02:51:06;92618.00;;;13.60
15575;BMP180;7888;46.748;8.102;2022-11-18T02:53:37;92612.00;;;13.60
15575;BMP180;7888;46.748;8.102;2022-11-18T02:56:06;92628.00;;;13.70
15575;BMP180;7888;46.748;8.102;2022-11-18T02:58:33;92651.00;;;13.60
15575;BMP180;7888;46.748;8.102;2022-11-18T03:01:00;92655.00;;;13.60
15575;BMP180;7888;46.748;8.102;2022-11-18T03:03:32;92669.00;;;13.50
15575;BMP180;7888;46.748;8.102;2022-11-18T03:06:37;92665.00;;;13.60
15575;BMP180;7888;46.748;8.102;2022-11-18T03:12:11;92679.00;;;13.50
15575;BMP180;7888;46.748;8.102;2022-11-18T03:17:33;92671.00;;;13.40
15575;BMP180;7888;46.748;8.102;2022-11-18T03:20:46;92665.00;;;13.20
15575;BMP180;7888;46.748;8.102;2022-11-18T03:23:37;92671.00;;;13.10
15575;BMP180;7888;46.748;8.102;2022-11-18T03:26:37;92663.00;;;13.10
15575;BMP180;7888;46.748;8.102;2022-11-18T03:29:14;92674.00;;;13.20
15575;BMP180;7888;46.748;8.102;2022-11-18T03:31:54;92683.00;;;13.20
15575;BMP180;7888;46.748;8.102;2022-11-18T03:34:30;92691.00;;;13.20
15575;BMP180;7888;46.748;8.102;2022-11-18T03:37:02;92676.00;;;13.30
15575;BMP180;7888;46.748;8.102;2022-11-18T03:39:34;92679.00;;;13.30
15575;BMP180;7888;46.748;8.102;2022-11-18T03:42:13;92684.00;;;13.30
15575;BMP180;7888;46.748;8.102;2022-11-18T03:44:49;92687.00;;;13.40
15575;BMP180;7888;46.748;8.102;2022-11-18T03:47:37;92685.00;;;13.40
15575;BMP180;7888;46.748;8.102;2022-11-18T03:50:16;92680.00;;;13.40
15575;BMP180;7888;46.748;8.102;2022-11-18T03:52:46;92678.00;;;13.40
15575;BMP180;7888;46.748;8.102;2022-11-18T03:55:19;92670.00;;;13.40
15575;BMP180;7888;46.748;8.102;2022-11-18T03:57:59;92681.00;;;13.40
15575;BMP180;7888;46.748;8.102;2022-11-18T04:00:37;92683.00;;;13.40
15575;BMP180;7888;46.748;8.102;2022-11-18T04:03:04;92657.00;;;13.30
15575;BMP180;7888;46.748;8.102;2022-11-18T04:05:37;92681.00;;;13.30
15575;BMP180;7888;46.748;8.102;2022-11-18T04:08:10;92684.00;;;13.40
15575;BMP180;7888;46.748;8.102;2022-11-18T04:11:00;92714.00;;;13.30
15575;BMP180;7888;46.748;8.102;2022-11-18T04:13:34;92717.00;;;13.30
15575;BMP180;7888;46.748;8.102;2022-11-18T04:16:01;92727.00;;;13.40
15575;BMP180;7888;46.748;8.102;2022-11-18T04:18:27;92735.00;;;13.40
15575;BMP180;7888;46.748;8.102;2022-11-18T04:20:53;92749.00;;;13.40
15575;BMP180;7888;46.748;8.102;2022-11-18T04:23:19;92758.00;;;13.40
15575;BMP180;7888;46.748;8.102;2022-11-18T04:25:45;92755.00;;;13.40
15575;BMP180;7888;46.748;8.102;2022-11-18T04:28:10;92764.00;;;13.40
15575;BMP180;7888;46.748;8.102;2022-11-18T04:30:36;92738.00;;;13.30
15575;BMP180;7888;46.748;8.102;2022-11-18T04:33:02;92739.00;;;13.30
15575;BMP180;7888;46.748;8.102;2022-11-18T04:35:29;92756.00;;;13.30
15575;BMP180;7888;46.748;8.102;2022-11-18T04:37:55;92751.00;;;13.30
15575;BMP180;7888;46.748;8.102;2022-11-18T04:40:21;92757.00;;;13.30
15575;BMP180;7888;46.748;8.102;2022-11-18T04:42:47;92756.00;;;13.30
15575;BMP180;7888;46.748;8.102;2022-11-18T04:45:13;92752.00;;;13.30
15575;BMP180;7888;46.748;8.102;2022-11-18T04:47:38;92749.00;;;13.30
15575;BMP180;7888;46.748;8.102;2022-11-18T04:50:05;92757.00;;;13.30
15575;BMP180;7888;46.748;8.102;2022-11-18T04:52:31;92749.00;;;13.30
15575;BMP180;7888;46.748;8.102;2022-11-18T04:54:57;92741.00;;;13.30
15575;BMP180;7888;46.748;8.102;2022-11-18T04:57:23;92733.00;;;13.30
15575;BMP180;7888;46.748;8.102;2022-11-18T04:59:48;92730.00;;;13.30
15575;BMP180;7888;46.748;8.102;2022-11-18T05:02:14;92739.00;;;13.30
15575;BMP180;7888;46.748;8.102;2022-11-18T05:04:41;92737.00;;;13.30
15575;BMP180;7888;46.748;8.102;2022-11-18T05:07:06;92714.00;;;13.30
15575;BMP180;7888;46.748;8.102;2022-11-18T05:09:33;92744.00;;;13.30
15575;BMP180;7888;46.748;8.102;2022-11-18T05:12:00;92733.00;;;13.30
15575;BMP180;7888;46.748;8.102;2022-11-18T05:14:45;92747.00;;;13.30
15575;BMP180;7888;46.748;8.102;2022-11-18T05:17:10;92758.00;;;13.30
15575;BMP180;7888;46.748;8.102;2022-11-18T05:19:37;92753.00;;;13.20
15575;BMP180;7888;46.748;8.102;2022-11-18T05:22:07;92773.00;;;13.20
15575;BMP180;7888;46.748;8.102;2022-11-18T05:24:33;92770.00;;;13.20
15575;BMP180;7888;46.748;8.102;2022-11-18T05:26:59;92775.00;;;13.20
15575;BMP180;7888;46.748;8.102;2022-11-18T05:29:25;92787.00;;;13.20
15575;BMP180;7888;46.748;8.102;2022-11-18T05:31:50;92781.00;;;13.20
15575;BMP180;7888;46.748;8.102;2022-11-18T05:34:18;92809.00;;;13.10
15575;BMP180;7888;46.748;8.102;2022-11-18T05:36:44;92800.00;;;13.10
15575;BMP180;7888;46.748;8.102;2022-11-18T05:39:10;92799.00;;;13.10
15575;BMP180;7888;46.748;8.102;2022-11-18T05:41:36;92807.00;;;13.10
15575;BMP180;7888;46.748;8.102;2022-11-18T05:44:20;92816.00;;;13.10
15575;BMP180;7888;46.748;8.102;2022-11-18T05:46:46;92826.00;;;13.10
15575;BMP180;7888;46.748;8.102;2022-11-18T05:49:12;92807.00;;;13.10
15575;BMP180;7888;46.748;8.102;2022-11-18T05:51:38;92802.00;;;13.10
15575;BMP180;7888;46.748;8.102;2022-11-18T05:54:08;92813.00;;;13.10
15575;BMP180;7888;46.748;8.102;2022-11-18T05:56:37;92809.00;;;13.00
15575;BMP180;7888;46.748;8.102;2022-11-18T05:59:04;92805.00;;;13.10
15575;BMP180;7888;46.748;8.102;2022-11-18T06:01:53;92819.00;;;13.00
15575;BMP180;7888;46.748;8.102;2022-11-18T06:04:37;92803.00;;;12.90
15575;BMP180;7888;46.748;8.102;2022-11-18T06:07:16;92820.00;;;12.90
15575;BMP180;7888;46.748;8.102;2022-11-18T06:09:51;92819.00;;;12.80
15575;BMP180;7888;46.748;8.102;2022-11-18T06:12:22;92830.00;;;12.80
15575;BMP180;7888;46.748;8.102;2022-11-18T06:15:04;92828.00;;;12.90
15575;BMP180;7888;46.748;8.102;2022-11-18T06:17:47;92824.00;;;12.80
15575;BMP180;7888;46.748;8.102;2022-11-18T06:20:19;92830.00;;;12.90
15575;BMP180;7888;46.748;8.102;2022-11-18T06:22:50;92837.00;;;12.90
15575;BMP180;7888;46.748;8.102;2022-11-18T06:25:18;92844.00;;;12.90
15575;BMP180;7888;46.748;8.102;2022-11-18T06:27:45;92820.00;;;12.90
15575;BMP180;7888;46.748;8.102;2022-11-18T06:30:13;92852.00;;;12.90
15575;BMP180;7888;46.748;8.102;2022-11-18T06:32:39;92866.00;;;12.90
15575;BMP180;7888;46.748;8.102;2022-11-18T06:35:05;92855.00;;;12.90
15575;BMP180;7888;46.748;8.102;2022-11-18T06:37:31;92866.00;;;12.90
15575;BMP180;7888;46.748;8.102;2022-11-18T06:39:57;92818.00;;;12.90
15575;BMP180;7888;46.748;8.102;2022-11-18T06:42:25;92871.00;;;12.90
15575;BMP180;7888;46.748;8.102;2022-11-18T06:45:10;92873.00;;;12.90
15575;BMP180;7888;46.748;8.102;2022-11-18T06:47:36;92873.00;;;12.90
15575;BMP180;7888;46.748;8.102;2022-11-18T06:50:02;92860.00;;;12.90
15575;BMP180;7888;46.748;8.102;2022-11-18T06:52:28;92868.00;;;12.90
15575;BMP180;7888;46.748;8.102;2022-11-18T06:54:54;92848.00;;;12.90
15575;BMP180;7888;46.748;8.102;2022-11-18T06:57:20;92870.00;;;12.90
15575;BMP180;7888;46.748;8.102;2022-11-18T06:59:46;92881.00;;;12.90
15575;BMP180;7888;46.748;8.102;2022-11-18T07:02:11;92844.00;;;12.80
15575;BMP180;7888;46.748;8.102;2022-11-18T07:04:37;92882.00;;;12.90
15575;BMP180;7888;46.748;8.102;2022-11-18T07:07:06;92890.00;;;12.90
15575;BMP180;7888;46.748;8.102;2022-11-18T07:09:34;92916.00;;;12.90
15575;BMP180;7888;46.748;8.102;2022-11-18T07:12:01;92899.00;;;12.90
15575;BMP180;7888;46.748;8.102;2022-11-18T07:14:27;92899.00;;;12.90
15575;BMP180;7888;46.748;8.102;2022-11-18T07:16:53;92876.00;;;12.90
15575;BMP180;7888;46.748;8.102;2022-11-18T07:19:18;92912.00;;;12.90
15575;BMP180;7888;46.748;8.102;2022-11-18T07:21:44;92880.00;;;12.90
15575;BMP180;7888;46.748;8.102;2022-11-18T07:24:14;92914.00;;;12.80
15575;BMP180;7888;46.748;8.102;2022-11-18T07:26:40;92891.00;;;12.80
15575;BMP180;7888;46.748;8.102;2022-11-18T07:29:07;92911.00;;;12.90
15575;BMP180;7888;46.748;8.102;2022-11-18T07:31:35;92890.00;;;12.90
15575;BMP180;7888;46.748;8.102;2022-11-18T07:34:05;92916.00;;;12.80
15575;BMP180;7888;46.748;8.102;2022-11-18T07:36:31;92917.00;;;12.80
15575;BMP180;7888;46.748;8.102;2022-11-18T07:38:59;92919.00;;;12.80
15575;BMP180;7888;46.748;8.102;2022-11-18T07:41:28;92929.00;;;12.80
15575;BMP180;7888;46.748;8.102;2022-11-18T07:43:56;92918.00;;;12.90
15575;BMP180;7888;46.748;8.102;2022-11-18T07:46:30;92913.00;;;12.90
15575;BMP180;7888;46.748;8.102;2022-11-18T07:48:59;92924.00;;;12.90
15575;BMP180;7888;46.748;8.102;2022-11-18T07:51:29;92925.00;;;12.90
15575;BMP180;7888;46.748;8.102;2022-11-18T07:53:56;92925.00;;;13.00
15575;BMP180;7888;46.748;8.102;2022-11-18T07:56:23;92923.00;;;13.00
15575;BMP180;7888;46.748;8.102;2022-11-18T07:58:54;92910.00;;;13.00
15575;BMP180;7888;46.748;8.102;2022-11-18T08:01:25;92919.00;;;12.90
15575;BMP180;7888;46.748;8.102;2022-11-18T08:03:56;92938.00;;;13.00
15575;BMP180;7888;46.748;8.102;2022-11-18T08:06:23;92942.00;;;13.00
15575;BMP180;7888;46.748;8.102;2022-11-18T08:08:49;92955.00;;;13.00
15575;BMP180;7888;46.748;8.102;2022-11-18T08:11:17;92951.00;;;12.90
15575;BMP180;7888;46.748;8.102;2022-11-18T08:13:43;92953.00;;;12.90
15575;BMP180;7888;46.748;8.102;2022-11-18T08:16:16;92941.00;;;12.90
15575;BMP180;7888;46.748;8.102;2022-11-18T08:18:43;92967.00;;;12.90
15575;BMP180;7888;46.748;8.102;2022-11-18T08:21:10;92970.00;;;13.00
15575;BMP180;7888;46.748;8.102;2022-11-18T08:23:36;92955.00;;;12.90
15575;BMP180;7888;46.748;8.102;2022-11-18T08:26:06;92958.00;;;12.90
15575;BMP180;7888;46.748;8.102;2022-11-18T08:28:32;92962.00;;;12.90
15575;BMP180;7888;46.748;8.102;2022-11-18T08:30:58;92941.00;;;12.80
15575;BMP180;7888;46.748;8.102;2022-11-18T08:33:24;92940.00;;;12.80
15575;BMP180;7888;46.748;8.102;2022-11-18T08:35:51;92942.00;;;12.80
15575;BMP180;7888;46.748;8.102;2022-11-18T08:38:17;92960.00;;;12.80
15575;BMP180;7888;46.748;8.102;2022-11-18T08:40:46;92973.00;;;12.80
15575;BMP180;7888;46.748;8.102;2022-11-18T08:43:12;92972.00;;;12.80
15575;BMP180;7888;46.748;8.102;2022-11-18T08:45:39;92953.00;;;12.80
15575;BMP180;7888;46.748;8.102;2022-11-18T08:48:05;92962.00;;;12.80
15575;BMP180;7888;46.748;8.102;2022-11-18T08:50:31;92962.00;;;12.80
15575;BMP180;7888;46.748;8.102;2022-11-18T08:52:57;92971.00;;;12.80
15575;BMP180;7888;46.748;8.102;2022-11-18T08:55:23;92964.00;;;12.80
15575;BMP180;7888;46.748;8.102;2022-11-18T08:57:49;92981.00;;;12.80
15575;BMP180;7888;46.748;8.102;2022-11-18T09:00:15;92975.00;;;12.80
15575;BMP180;7888;46.748;8.102;2022-11-18T09:02:41;92967.00;;;12.80
15575;BMP180;7888;46.748;8.102;2022-11-18T09:05:07;92979.00;;;12.80
15575;BMP180;7888;46.748;8.102;2022-11-18T09:07:33;92989.00;;;12.90
15575;BMP180;7888;46.748;8.102;2022-11-18T09:09:59;92977.00;;;12.90
15575;BMP180;7888;46.748;8.102;2022-11-18T09:12:25;92955.00;;;12.90
15575;BMP180;7888;46.748;8.102;2022-11-18T09:14:51;92986.00;;;13.00
15575;BMP180;7888;46.748;8.102;2022-11-18T09:17:17;92985.00;;;13.10
15575;BMP180;7888;46.748;8.102;2022-11-18T09:19:43;92978.00;;;13.10
15575;BMP180;7888;46.748;8.102;2022-11-18T09:22:09;92983.00;;;13.10
15575;BMP180;7888;46.748;8.102;2022-11-18T09:24:35;92976.00;;;13.20
15575;BMP180;7888;46.748;8.102;2022-11-18T09:27:03;92967.00;;;13.20
15575;BMP180;7888;46.748;8.102;2022-11-18T09:29:30;92978.00;;;13.20
15575;BMP180;7888;46.748;8.102;2022-11-18T09:31:56;92976.00;;;13.30
15575;BMP180;7888;46.748;8.102;2022-11-18T09:34:23;92982.00;;;13.30
15575;BMP180;7888;46.748;8.102;2022-11-18T09:36:49;92993.00;;;13.30
15575;BMP180;7888;46.748;8.102;2022-11-18T09:39:15;92991.00;;;13.40
15575;BMP180;7888;46.748;8.102;2022-11-18T09:41:53;92997.00;;;13.40
15575;BMP180;7888;46.748;8.102;2022-11-18T09:44:40;92989.00;;;13.40
15575;BMP180;7888;46.748;8.102;2022-11-18T09:47:28;93011.00;;;13.30
15575;BMP180;7888;46.748;8.102;2022-11-18T09:50:05;93018.00;;;13.30
15575;BMP180;7888;46.748;8.102;2022-11-18T09:53:00;93006.00;;;13.30
15575;BMP180;7888;46.748;8.102;2022-11-18T09:55:29;93005.00;;;13.40
15575;BMP180;7888;46.748;8.102;2022-11-18T09:57:58;92995.00;;;13.40
15575;BMP180;7888;46.748;8.102;2022-11-18T10:00:27;93010.00;;;13.50
15575;BMP180;7888;46.748;8.102;2022-11-18T10:03:27;93020.00;;;13.50
15575;BMP180;7888;46.748;8.102;2022-11-18T10:06:12;93024.00;;;13.50
15575;BMP180;7888;46.748;8.102;2022-11-18T10:11:27;92993.00;;;13.50
15575;BMP180;7888;46.748;8.102;2022-11-18T10:23:19;93004.00;;;13.30
15575;BMP180;7888;46.748;8.102;2022-11-18T10:25:47;93006.00;;;13.40
15575;BMP180;7888;46.748;8.102;2022-11-18T10:28:29;93010.00;;;13.30
15575;BMP180;7888;46.748;8.102;2022-11-18T10:31:09;93012.00;;;13.30
15575;BMP180;7888;46.748;8.102;2022-11-18T10:33:37;93014.00;;;13.30
15575;BMP180;7888;46.748;8.102;2022-11-18T10:36:27;93019.00;;;13.30
15575;BMP180;7888;46.748;8.102;2022-11-18T10:39:11;93025.00;;;13.30
15575;BMP180;7888;46.748;8.102;2022-11-18T10:41:43;93021.00;;;13.40
15575;BMP180;7888;46.748;8.102;2022-11-18T10:44:38;93012.00;;;13.40
15575;BMP180;7888;46.748;8.102;2022-11-18T10:47:30;93000.00;;;13.40
15575;BMP180;7888;46.748;8.102;2022-11-18T10:50:41;93005.00;;;13.50
15575;BMP180;7888;46.748;8.102;2022-11-18T10:53:33;93023.00;;;13.50
15575;BMP180;7888;46.748;8.102;2022-11-18T10:56:06;93013.00;;;13.50
15575;BMP180;7888;46.748;8.102;2022-11-18T10:58:58;93012.00;;;13.40
15575;BMP180;7888;46.748;8.102;2022-11-18T11:01:26;92994.00;;;13.50
15575;BMP180;7888;46.748;8.102;2022-11-18T11:06:30;93031.00;;;13.50
15575;BMP180;7888;46.748;8.102;2022-11-18T11:11:54;93012.00;;;13.40
15575;BMP180;7888;46.748;8.102;2022-11-18T11:14:36;93003.00;;;13.40
15575;BMP180;7888;46.748;8.102;2022-11-18T11:17:16;93009.00;;;13.40
15575;BMP180;7888;46.748;8.102;2022-11-18T11:22:43;93000.00;;;13.50
15575;BMP180;7888;46.748;8.102;2022-11-18T11:25:17;92999.00;;;13.40
15575;BMP180;7888;46.748;8.102;2022-11-18T11:28:06;93002.00;;;13.40
15575;BMP180;7888;46.748;8.102;2022-11-18T11:40:50;93022.00;;;13.40
15575;BMP180;7888;46.748;8.102;2022-11-18T11:51:49;93022.00;;;13.70
15575;BMP180;7888;46.748;8.102;2022-11-18T11:54:54;93009.00;;;13.70
15575;BMP180;7888;46.748;8.102;2022-11-18T12:00:33;93022.00;;;13.90
15575;BMP180;7888;46.748;8.102;2022-11-18T12:03:41;93027.00;;;13.90
15575;BMP180;7888;46.748;8.102;2022-11-18T12:06:10;93037.00;;;14.00
15575;BMP180;7888;46.748;8.102;2022-11-18T12:08:43;93025.00;;;14.10
15575;BMP180;7888;46.748;8.102;2022-11-18T12:11:37;93017.00;;;14.10
15575;BMP180;7888;46.748;8.102;2022-11-18T12:17:29;93030.00;;;14.20
15575;BMP180;7888;46.748;8.102;2022-11-18T12:19:57;92999.00;;;14.30
15575;BMP180;7888;46.748;8.102;2022-11-18T12:22:22;93028.00;;;14.40
15575;BMP180;7888;46.748;8.102;2022-11-18T12:24:48;93033.00;;;14.40
15575;BMP180;7888;46.748;8.102;2022-11-18T12:30:17;93030.00;;;14.40
15575;BMP180;7888;46.748;8.102;2022-11-18T12:32:43;93028.00;;;14.50
15575;BMP180;7888;46.748;8.102;2022-11-18T12:37:58;93034.00;;;14.50
15575;BMP180;7888;46.748;8.102;2022-11-18T12:40:34;93026.00;;;14.50
15575;BMP180;7888;46.748;8.102;2022-11-18T12:43:01;93036.00;;;14.60
15575;BMP180;7888;46.748;8.102;2022-11-18T12:45:52;93043.00;;;14.60
15575;BMP180;7888;46.748;8.102;2022-11-18T12:48:32;93042.00;;;14.60
15575;BMP180;7888;46.748;8.102;2022-11-18T12:51:02;93041.00;;;14.60
15575;BMP180;7888;46.748;8.102;2022-11-18T12:53:44;93034.00;;;14.60
15575;BMP180;7888;46.748;8.102;2022-11-18T12:58:54;93047.00;;;14.60
15575;BMP180;7888;46.748;8.102;2022-11-18T13:01:30;93046.00;;;14.50
15575;BMP180;7888;46.748;8.102;2022-11-18T13:04:25;93029.00;;;14.50
15575;BMP180;7888;46.748;8.102;2022-11-18T13:06:51;93029.00;;;14.50
15575;BMP180;7888;46.748;8.102;2022-11-18T13:09:23;93042.00;;;14.50
15575;BMP180;7888;46.748;8.102;2022-11-18T13:12:06;93044.00;;;14.40
15575;BMP180;7888;46.748;8.102;2022-11-18T13:14:42;93047.00;;;14.40
15575;BMP180;7888;46.748;8.102;2022-11-18T13:17:33;93045.00;;;14.40
15575;BMP180;7888;46.748;8.102;2022-11-18T13:20:43;93050.00;;;14.40
15575;BMP180;7888;46.748;8.102;2022-11-18T13:26:22;93055.00;;;14.40
15575;BMP180;7888;46.748;8.102;2022-11-18T13:32:26;93057.00;;;14.30
15575;BMP180;7888;46.748;8.102;2022-11-18T13:37:52;93069.00;;;14.30
15575;BMP180;7888;46.748;8.102;2022-11-18T13:40:29;93068.00;;;14.20
15575;BMP180;7888;46.748;8.102;2022-11-18T13:42:56;93065.00;;;14.40
15575;BMP180;7888;46.748;8.102;2022-11-18T13:45:26;93049.00;;;14.30
15575;BMP180;7888;46.748;8.102;2022-11-18T13:48:04;93057.00;;;14.40
15575;BMP180;7888;46.748;8.102;2022-11-18T13:50:38;93048.00;;;14.40
15575;BMP180;7888;46.748;8.102;2022-11-18T13:53:37;93043.00;;;14.40
15575;BMP180;7888;46.748;8.102;2022-11-18T13:56:12;93045.00;;;14.40
15575;BMP180;7888;46.748;8.102;2022-11-18T13:58:55;93065.00;;;14.40
15575;BMP180;7888;46.748;8.102;2022-11-18T14:01:30;93070.00;;;14.30
15575;BMP180;7888;46.748;8.102;2022-11-18T14:04:03;93076.00;;;14.30
15575;BMP180;7888;46.748;8.102;2022-11-18T14:06:40;93032.00;;;14.10
15575;BMP180;7888;46.748;8.102;2022-11-18T14:09:26;93073.00;;;14.10
15575;BMP180;7888;46.748;8.102;2022-11-18T14:12:23;93075.00;;;14.10
15575;BMP180;7888;46.748;8.102;2022-11-18T14:14:49;93073.00;;;14.20
15575;BMP180;7888;46.748;8.102;2022-11-18T14:17:23;93067.00;;;14.10
15575;BMP180;7888;46.748;8.102;2022-11-18T14:19:56;93069.00;;;14.10
15575;BMP180;7888;46.748;8.102;2022-11-18T14:22:28;93061.00;;;14.10
15575;BMP180;7888;46.748;8.102;2022-11-18T14:25:01;93058.00;;;14.10
15575;BMP180;7888;46.748;8.102;2022-11-18T14:30:32;93065.00;;;14.00
15575;BMP180;7888;46.748;8.102;2022-11-18T14:35:32;93067.00;;;14.00
15575;BMP180;7888;46.748;8.102;2022-11-18T14:37:58;93062.00;;;14.00
15575;BMP180;7888;46.748;8.102;2022-11-18T14:40:24;93065.00;;;14.00
15575;BMP180;7888;46.748;8.102;2022-11-18T14:42:49;93069.00;;;14.00
15575;BMP180;7888;46.748;8.102;2022-11-18T14:45:15;93057.00;;;14.00
15575;BMP180;7888;46.748;8.102;2022-11-18T14:47:41;93068.00;;;14.10
15575;BMP180;7888;46.748;8.102;2022-11-18T14:50:14;93068.00;;;14.00
15575;BMP180;7888;46.748;8.102;2022-11-18T14:52:40;93060.00;;;14.10
15575;BMP180;7888;46.748;8.102;2022-11-18T14:55:06;93068.00;;;14.10
15575;BMP180;7888;46.748;8.102;2022-11-18T14:57:32;93047.00;;;14.10
15575;BMP180;7888;46.748;8.102;2022-11-18T14:59:58;93072.00;;;14.10
15575;BMP180;7888;46.748;8.102;2022-11-18T15:02:24;93077.00;;;14.20
15575;BMP180;7888;46.748;8.102;2022-11-18T15:04:50;93069.00;;;14.20
15575;BMP180;7888;46.748;8.102;2022-11-18T15:07:18;93049.00;;;14.20
15575;BMP180;7888;46.748;8.102;2022-11-18T15:09:44;93080.00;;;14.30
15575;BMP180;7888;46.748;8.102;2022-11-18T15:12:10;93084.00;;;14.30
15575;BMP180;7888;46.748;8.102;2022-11-18T15:14:36;93079.00;;;14.30
15575;BMP180;7888;46.748;8.102;2022-11-18T15:17:02;93084.00;;;14.30
15575;BMP180;7888;46.748;8.102;2022-11-18T15:19:28;93088.00;;;14.30
15575;BMP180;7888;46.748;8.102;2022-11-18T15:21:55;93086.00;;;14.30
15575;BMP180;7888;46.748;8.102;2022-11-18T15:24:21;93094.00;;;14.30
15575;BMP180;7888;46.748;8.102;2022-11-18T15:26:47;93093.00;;;14.30
15575;BMP180;7888;46.748;8.102;2022-11-18T15:29:23;93080.00;;;14.30
15575;BMP180;7888;46.748;8.102;2022-11-18T15:31:50;93094.00;;;14.30
15575;BMP180;7888;46.748;8.102;2022-11-18T15:34:18;93091.00;;;14.30
15575;BMP180;7888;46.748;8.102;2022-11-18T15:36:45;93099.00;;;14.30
15575;BMP180;7888;46.748;8.102;2022-11-18T15:39:11;93108.00;;;14.30
15575;BMP180;7888;46.748;8.102;2022-11-18T15:41:40;93099.00;;;14.30
15575;BMP180;7888;46.748;8.102;2022-11-18T15:44:08;93106.00;;;14.30
15575;BMP180;7888;46.748;8.102;2022-11-18T15:46:34;93097.00;;;14.30
15575;BMP180;7888;46.748;8.102;2022-11-18T15:49:01;93100.00;;;14.30
15575;BMP180;7888;46.748;8.102;2022-11-18T15:51:28;93105.00;;;14.30
15575;BMP180;7888;46.748;8.102;2022-11-18T15:53:55;93110.00;;;14.30
15575;BMP180;7888;46.748;8.102;2022-11-18T15:56:29;93113.00;;;14.20
15575;BMP180;7888;46.748;8.102;2022-11-18T15:59:04;93110.00;;;14.20
15575;BMP180;7888;46.748;8.102;2022-11-18T16:01:33;93105.00;;;14.20
15575;BMP180;7888;46.748;8.102;2022-11-18T16:04:00;93108.00;;;14.20
15575;BMP180;7888;46.748;8.102;2022-11-18T16:06:26;93112.00;;;14.10
15575;BMP180;7888;46.748;8.102;2022-11-18T16:08:54;93113.00;;;14.10
15575;BMP180;7888;46.748;8.102;2022-11-18T16:11:20;93110.00;;;14.10
15575;BMP180;7888;46.748;8.102;2022-11-18T16:14:07;93110.00;;;14.00
15575;BMP180;7888;46.748;8.102;2022-11-18T16:16:35;93090.00;;;14.00
15575;BMP180;7888;46.748;8.102;2022-11-18T16:19:04;93109.00;;;13.90